Time;durP1;ratioP1;P1;durP2;ratioP2;P2;SDS_P1;SDS_P2;PMS_P1;PMS_P2;Temp;Humidity;BMP_temperature;BMP_pressure;BME280_temperature;BME280_humidity;BME280_pressure;Samples;Min_cycle;Max_cycle;Signal;HPM_P1;HPM_P2
2023/07/10 00:01:17;;;;;;;7.03;6.43;;;;;;;;;;5014355;28;20545;-54
2023/07/10 00:03:44;;;;;;;7.80;6.03;;;;;;;;;;5014593;28;20510;-54
2023/07/10 00:06:13;;;;;;;7.20;6.50;;;;;;;;;;5014559;28;20538;-55
2023/07/10 00:08:41;;;;;;;5.77;5.20;;;;;;;;;;5014401;28;20446;-54
2023/07/10 00:11:14;;;;;;;6.73;6.23;;;;;;;;;;5014356;28;20474;-59
2023/07/10 00:13:41;;;;;;;7.00;6.43;;;;;;;;;;5014111;28;20542;-56
2023/07/10 00:16:13;;;;;;;6.70;6.10;;;;;;;;;;5014329;28;20516;-57
2023/07/10 00:18:40;;;;;;;6.03;5.63;;;;;;;;;;5014063;28;20454;-56
2023/07/10 00:21:07;;;;;;;7.20;6.60;;;;;;;;;;5014143;28;20513;-55
2023/07/10 00:23:35;;;;;;;6.70;6.20;;;;;;;;;;5014069;28;20883;-56
2023/07/10 00:26:02;;;;;;;6.37;5.87;;;;;;;;;;5013767;28;20541;-53
2023/07/10 00:28:29;;;;;;;6.80;6.30;;;;;;;;;;5014017;28;20457;-53
2023/07/10 00:30:56;;;;;;;6.23;5.67;;;;;;;;;;5014038;28;20455;-56
2023/07/10 00:33:23;;;;;;;7.13;6.40;;;;;;;;;;5013887;28;20485;-56
2023/07/10 00:35:50;;;;;;;7.30;6.60;;;;;;;;;;5013837;28;20831;-55
2023/07/10 00:38:22;;;;;;;7.07;6.33;;;;;;;;;;5013765;28;20545;-56
2023/07/10 00:40:50;;;;;;;7.10;6.40;;;;;;;;;;5013613;28;20457;-55
2023/07/10 00:43:29;;;;;;;6.53;5.93;;;;;;;;;;5013813;28;20450;-55
2023/07/10 00:45:58;;;;;;;7.23;6.73;;;;;;;;;;5013525;28;20486;-55
2023/07/10 00:48:31;;;;;;;7.20;6.50;;;;;;;;;;5013622;28;20546;-54
2023/07/10 00:50:59;;;;;;;7.33;6.73;;;;;;;;;;5013493;28;20447;-52
2023/07/10 00:53:27;;;;;;;12.40;6.90;;;;;;;;;;5013755;28;20534;-56
2023/07/10 00:55:56;;;;;;;7.13;6.60;;;;;;;;;;5013400;28;20478;-55
2023/07/10 00:58:24;;;;;;;5.70;5.30;;;;;;;;;;5013540;28;20533;-54
2023/07/10 01:01:05;;;;;;;6.63;6.03;;;;;;;;;;5013364;28;20447;-56
2023/07/10 01:03:32;;;;;;;6.67;6.13;;;;;;;;;;5013206;28;20535;-54
2023/07/10 01:06:00;;;;;;;7.10;6.40;;;;;;;;;;5013527;28;20573;-55
2023/07/10 01:08:28;;;;;;;6.80;6.30;;;;;;;;;;5013510;28;20546;-54
2023/07/10 01:10:56;;;;;;;6.67;6.07;;;;;;;;;;5013492;28;20546;-53
2023/07/10 01:13:23;;;;;;;6.70;6.20;;;;;;;;;;5013271;28;20489;-55
2023/07/10 01:15:50;;;;;;;6.30;5.70;;;;;;;;;;5013121;28;20515;-55
2023/07/10 01:18:17;;;;;;;6.47;5.87;;;;;;;;;;5013104;28;20477;-55
2023/07/10 01:20:46;;;;;;;7.37;6.67;;;;;;;;;;5013256;28;20501;-55
2023/07/10 01:23:15;;;;;;;6.37;5.80;;;;;;;;;;5013193;28;20454;-55
2023/07/10 01:25:44;;;;;;;6.20;5.70;;;;;;;;;;5013198;28;20529;-55
2023/07/10 01:28:15;;;;;;;6.43;5.90;;;;;;;;;;5012963;28;20455;-56
2023/07/10 01:30:43;;;;;;;6.87;6.30;;;;;;;;;;5012783;28;20546;-56
2023/07/10 01:33:13;;;;;;;6.57;6.07;;;;;;;;;;5013271;28;20457;-55
2023/07/10 01:35:41;;;;;;;5.80;5.40;;;;;;;;;;5013036;28;20455;-55
2023/07/10 01:38:09;;;;;;;6.97;6.27;;;;;;;;;;5013129;28;20537;-53
2023/07/10 01:40:39;;;;;;;6.37;5.47;;;;;;;;;;5013052;28;20537;-55
2023/07/10 01:43:06;;;;;;;5.20;4.50;;;;;;;;;;5012807;28;20457;-57
2023/07/10 01:45:41;;;;;;;5.23;4.73;;;;;;;;;;5012993;28;20573;-56
2023/07/10 01:48:08;;;;;;;5.10;4.43;;;;;;;;;;5013080;28;20489;-56
2023/07/10 01:50:35;;;;;;;5.00;4.60;;;;;;;;;;5012827;28;20958;-56
2023/07/10 01:53:02;;;;;;;5.20;4.70;;;;;;;;;;5012821;28;20541;-56
2023/07/10 01:55:30;;;;;;;4.23;3.83;;;;;;;;;;5012751;28;20832;-54
2023/07/10 01:57:59;;;;;;;10.07;5.00;;;;;;;;;;5012607;28;20567;-56
2023/07/10 02:00:26;;;;;;;4.93;4.53;;;;;;;;;;5012857;28;20549;-55
2023/07/10 02:02:53;;;;;;;5.40;5.00;;;;;;;;;;5012838;28;20553;-55
2023/07/10 02:05:19;;;;;;;5.83;5.33;;;;;;;;;;5012781;28;20490;-56
2023/07/10 02:07:46;;;;;;;5.00;4.40;;;;;;;;;;5012770;28;21040;-55
2023/07/10 02:10:13;;;;;;;4.10;3.83;;;;;;;;;;5012561;28;20533;-55
2023/07/10 02:12:40;;;;;;;5.40;5.00;;;;;;;;;;5012799;28;20533;-55
2023/07/10 02:15:09;;;;;;;5.77;5.27;;;;;;;;;;5012606;28;20540;-54
2023/07/10 02:17:36;;;;;;;6.87;6.00;;;;;;;;;;5012646;28;20637;-55
2023/07/10 02:20:05;;;;;;;5.63;5.03;;;;;;;;;;5012552;28;20533;-56
2023/07/10 02:22:32;;;;;;;5.57;5.17;;;;;;;;;;5012521;28;20461;-55
2023/07/10 02:24:59;;;;;;;5.47;5.07;;;;;;;;;;5012804;28;20528;-55
2023/07/10 02:27:26;;;;;;;6.43;5.87;;;;;;;;;;5012856;28;20544;-56
2023/07/10 02:29:53;;;;;;;5.63;5.23;;;;;;;;;;5012580;28;20541;-54
2023/07/10 02:32:21;;;;;;;5.50;5.10;;;;;;;;;;5012525;28;20493;-55
2023/07/10 02:34:48;;;;;;;11.30;5.90;;;;;;;;;;5012560;28;20517;-56
2023/07/10 02:37:15;;;;;;;6.47;5.03;;;;;;;;;;5012359;28;20541;-50
2023/07/10 02:39:42;;;;;;;5.40;5.00;;;;;;;;;;5012949;28;20869;-54
2023/07/10 02:42:09;;;;;;;6.73;6.13;;;;;;;;;;5016031;28;20538;-50
2023/07/10 02:44:36;;;;;;;5.93;5.43;;;;;;;;;;5015620;28;20458;-56
2023/07/10 02:47:03;;;;;;;7.07;6.17;;;;;;;;;;5015973;28;20453;-55
2023/07/10 02:49:31;;;;;;;6.43;5.83;;;;;;;;;;5015697;28;20541;-54
2023/07/10 02:51:58;;;;;;;7.67;6.63;;;;;;;;;;5015649;28;20545;-54
2023/07/10 02:54:25;;;;;;;6.57;5.97;;;;;;;;;;5015785;28;20451;-55
2023/07/10 02:56:52;;;;;;;6.17;5.60;;;;;;;;;;5015511;28;20524;-54
2023/07/10 02:59:19;;;;;;;6.07;5.67;;;;;;;;;;5015579;28;20966;-54
2023/07/10 03:01:47;;;;;;;6.07;5.57;;;;;;;;;;5015614;28;20454;-55
2023/07/10 03:04:14;;;;;;;6.73;6.23;;;;;;;;;;5015455;28;20459;-56
2023/07/10 03:06:42;;;;;;;7.03;6.33;;;;;;;;;;5015465;28;20486;-54
2023/07/10 03:09:09;;;;;;;5.53;5.03;;;;;;;;;;5015645;28;20498;-52
2023/07/10 03:11:36;;;;;;;6.13;5.63;;;;;;;;;;5015604;28;20548;-56
2023/07/10 03:14:03;;;;;;;5.80;5.40;;;;;;;;;;5015369;28;20523;-56
2023/07/10 03:16:30;;;;;;;5.73;5.23;;;;;;;;;;5015330;28;20930;-52
2023/07/10 03:18:57;;;;;;;5.17;4.77;;;;;;;;;;5015105;28;20970;-54
2023/07/10 03:21:24;;;;;;;5.73;5.10;;;;;;;;;;5015329;28;20458;-52
2023/07/10 03:23:53;;;;;;;6.10;5.10;;;;;;;;;;5015125;28;20503;-51
2023/07/10 03:26:20;;;;;;;5.70;5.20;;;;;;;;;;5015005;28;20490;-50
2023/07/10 03:28:47;;;;;;;5.80;5.00;;;;;;;;;;5014869;28;20454;-53
2023/07/10 03:31:14;;;;;;;9.53;4.50;;;;;;;;;;5014814;28;20476;-50
2023/07/10 03:33:40;;;;;;;5.80;5.30;;;;;;;;;;5014855;28;20541;-52
2023/07/10 03:36:08;;;;;;;6.90;5.43;;;;;;;;;;5014986;28;20494;-52
2023/07/10 03:38:35;;;;;;;6.03;4.57;;;;;;;;;;5014857;28;20455;-51
2023/07/10 03:41:04;;;;;;;5.50;5.07;;;;;;;;;;5014905;28;20533;-51
2023/07/10 03:43:30;;;;;;;5.57;5.17;;;;;;;;;;5014746;28;20457;-51
2023/07/10 03:45:57;;;;;;;5.00;4.60;;;;;;;;;;5014501;28;20485;-52
2023/07/10 03:48:24;;;;;;;4.50;4.17;;;;;;;;;;5014724;28;20458;-52
2023/07/10 03:50:51;;;;;;;4.90;4.60;;;;;;;;;;5014716;28;20492;-55
2023/07/10 03:53:18;;;;;;;5.23;4.73;;;;;;;;;;5014258;28;21044;-52
2023/07/10 03:55:49;;;;;;;4.70;4.30;;;;;;;;;;5014379;28;20889;-52
2023/07/10 03:58:21;;;;;;;5.37;4.40;;;;;;;;;;5014554;28;20489;-50
2023/07/10 04:00:48;;;;;;;8.17;4.80;;;;;;;;;;5014578;28;20530;-50
2023/07/10 04:03:15;;;;;;;5.10;4.63;;;;;;;;;;5014437;28;20604;-54
2023/07/10 04:05:48;;;;;;;5.27;4.77;;;;;;;;;;5014311;28;20467;-54
2023/07/10 04:08:15;;;;;;;6.53;5.13;;;;;;;;;;5014360;28;20819;-51
2023/07/10 04:10:42;;;;;;;8.00;5.27;;;;;;;;;;5014315;28;20486;-49
2023/07/10 04:13:09;;;;;;;5.17;4.60;;;;;;;;;;5014170;28;20489;-51
2023/07/10 04:15:37;;;;;;;6.70;5.13;;;;;;;;;;5014442;28;20995;-55
2023/07/10 04:18:04;;;;;;;8.20;5.37;;;;;;;;;;5014354;28;20546;-54
2023/07/10 04:20:31;;;;;;;8.20;5.70;;;;;;;;;;5014287;28;20537;-55
2023/07/10 04:22:58;;;;;;;4.90;4.50;;;;;;;;;;5014190;28;20541;-55
2023/07/10 04:25:25;;;;;;;9.77;5.90;;;;;;;;;;5014038;28;20494;-56
2023/07/10 04:27:52;;;;;;;8.07;5.20;;;;;;;;;;5013826;28;20561;-56
2023/07/10 04:30:19;;;;;;;5.47;5.17;;;;;;;;;;5014189;28;20992;-54
2023/07/10 04:32:47;;;;;;;5.90;5.50;;;;;;;;;;5013964;28;20546;-54
2023/07/10 04:35:14;;;;;;;5.00;4.67;;;;;;;;;;5014116;28;20597;-52
2023/07/10 04:37:41;;;;;;;5.40;4.90;;;;;;;;;;5013770;28;20537;-55
2023/07/10 04:40:08;;;;;;;5.90;5.50;;;;;;;;;;5013737;28;21024;-54
2023/07/10 04:42:35;;;;;;;7.63;5.80;;;;;;;;;;5013719;28;20512;-55
2023/07/10 04:45:03;;;;;;;5.07;4.63;;;;;;;;;;5013743;28;20552;-55
2023/07/10 04:47:31;;;;;;;6.50;5.30;;;;;;;;;;5013503;28;20482;-55
2023/07/10 04:49:59;;;;;;;5.33;4.87;;;;;;;;;;5013745;28;20540;-55
2023/07/10 04:52:26;;;;;;;5.33;4.70;;;;;;;;;;5013568;28;20541;-54
2023/07/10 04:54:53;;;;;;;6.10;5.50;;;;;;;;;;5013320;28;20867;-56
2023/07/10 04:57:20;;;;;;;6.27;4.90;;;;;;;;;;5013574;28;20572;-55
2023/07/10 04:59:47;;;;;;;6.60;6.10;;;;;;;;;;5013467;28;20447;-55
2023/07/10 05:02:14;;;;;;;6.53;6.03;;;;;;;;;;5013405;28;20553;-56
2023/07/10 05:04:41;;;;;;;6.70;5.63;;;;;;;;;;5012401;28;20478;-53
2023/07/10 05:07:09;;;;;;;5.47;4.97;;;;;;;;;;5013040;28;20486;-55
2023/07/10 05:09:36;;;;;;;5.60;5.20;;;;;;;;;;5013188;28;21014;-55
2023/07/10 05:12:03;;;;;;;4.87;4.43;;;;;;;;;;5013075;28;20486;-54
2023/07/10 05:14:30;;;;;;;5.97;5.47;;;;;;;;;;5013053;28;20493;-55
2023/07/10 05:16:57;;;;;;;6.43;5.83;;;;;;;;;;5013102;28;20541;-54
2023/07/10 05:19:24;;;;;;;5.70;5.30;;;;;;;;;;5013072;28;20486;-55
2023/07/10 05:21:51;;;;;;;7.67;6.10;;;;;;;;;;5013052;28;20541;-56
2023/07/10 05:24:19;;;;;;;5.93;5.47;;;;;;;;;;5013233;28;20549;-54
2023/07/10 05:26:47;;;;;;;6.63;5.57;;;;;;;;;;5013013;28;20920;-55
2023/07/10 05:29:13;;;;;;;6.60;6.10;;;;;;;;;;5013165;28;20455;-53
2023/07/10 05:31:40;;;;;;;5.77;5.27;;;;;;;;;;5013024;28;20866;-55
2023/07/10 05:34:08;;;;;;;7.17;5.67;;;;;;;;;;5013052;28;20930;-55
2023/07/10 05:36:35;;;;;;;6.13;5.63;;;;;;;;;;5013284;28;20578;-55
2023/07/10 05:39:02;;;;;;;7.03;5.50;;;;;;;;;;5012996;28;20450;-56
2023/07/10 05:41:30;;;;;;;8.40;6.47;;;;;;;;;;5012890;28;20450;-55
2023/07/10 05:43:57;;;;;;;5.30;5.00;;;;;;;;;;5012867;28;20504;-55
2023/07/10 05:46:24;;;;;;;5.60;5.20;;;;;;;;;;5012896;28;20470;-55
2023/07/10 05:48:52;;;;;;;6.17;5.67;;;;;;;;;;5012910;28;20545;-54
2023/07/10 05:51:19;;;;;;;9.03;5.80;;;;;;;;;;5012762;28;20473;-53
2023/07/10 05:53:47;;;;;;;6.97;6.03;;;;;;;;;;5012745;28;20450;-56
2023/07/10 05:56:14;;;;;;;7.60;5.97;;;;;;;;;;5015255;28;20505;-56
2023/07/10 05:58:43;;;;;;;7.00;5.93;;;;;;;;;;5012551;28;20538;-55
2023/07/10 06:01:10;;;;;;;9.80;6.63;;;;;;;;;;5012509;28;20553;-56
2023/07/10 06:03:37;;;;;;;7.10;6.60;;;;;;;;;;5012595;28;20946;-56
2023/07/10 06:06:05;;;;;;;7.40;6.70;;;;;;;;;;5012674;28;20556;-56
2023/07/10 06:08:33;;;;;;;9.73;6.03;;;;;;;;;;5012698;28;20512;-56
2023/07/10 06:11:00;;;;;;;8.70;7.77;;;;;;;;;;5012646;28;20549;-55
2023/07/10 06:13:27;;;;;;;9.97;6.97;;;;;;;;;;5012735;28;20541;-56
2023/07/10 06:15:56;;;;;;;9.07;6.10;;;;;;;;;;5014637;28;20865;-55
2023/07/10 06:18:24;;;;;;;7.10;6.50;;;;;;;;;;5016573;28;20527;-53
2023/07/10 06:20:52;;;;;;;8.10;7.03;;;;;;;;;;5016467;28;20461;-55
2023/07/10 06:23:18;;;;;;;6.83;6.23;;;;;;;;;;5016474;28;20447;-55
2023/07/10 06:25:45;;;;;;;5.83;5.43;;;;;;;;;;5016149;28;20533;-56
2023/07/10 06:28:13;;;;;;;8.80;6.83;;;;;;;;;;5016071;28;20496;-56
2023/07/10 06:30:40;;;;;;;7.80;7.00;;;;;;;;;;5016156;28;20481;-56
2023/07/10 06:33:08;;;;;;;8.10;7.30;;;;;;;;;;5016374;28;20457;-54
2023/07/10 06:35:35;;;;;;;7.73;6.80;;;;;;;;;;5016148;28;20940;-54
2023/07/10 06:38:02;;;;;;;8.67;7.00;;;;;;;;;;5016032;28;20536;-55
2023/07/10 06:40:30;;;;;;;8.80;7.00;;;;;;;;;;5016090;28;20894;-54
2023/07/10 06:42:56;;;;;;;8.03;7.33;;;;;;;;;;5015841;28;20453;-54
2023/07/10 06:45:23;;;;;;;8.47;7.70;;;;;;;;;;5016012;28;20507;-53
2023/07/10 06:47:50;;;;;;;7.77;6.90;;;;;;;;;;5015053;28;20583;-56
2023/07/10 06:50:19;;;;;;;7.90;7.20;;;;;;;;;;5015619;28;20511;-55
2023/07/10 06:52:46;;;;;;;9.83;6.23;;;;;;;;;;5015570;28;20454;-52
2023/07/10 06:55:14;;;;;;;7.47;6.80;;;;;;;;;;5015644;28;20813;-52
2023/07/10 06:57:41;;;;;;;7.83;7.13;;;;;;;;;;5015270;28;20552;-51
2023/07/10 07:00:10;;;;;;;8.67;7.97;;;;;;;;;;5015794;28;20886;-53
2023/07/10 07:02:37;;;;;;;6.80;6.20;;;;;;;;;;5015515;28;20541;-55
2023/07/10 07:05:04;;;;;;;8.07;7.37;;;;;;;;;;5015773;28;20540;-54
2023/07/10 07:07:33;;;;;;;7.60;7.00;;;;;;;;;;5015319;28;20583;-56
2023/07/10 07:10:00;;;;;;;9.13;8.07;;;;;;;;;;5015154;28;20514;-56
2023/07/10 07:12:27;;;;;;;8.20;7.50;;;;;;;;;;5015559;28;20542;-56
2023/07/10 07:14:54;;;;;;;8.30;7.50;;;;;;;;;;5015415;28;20482;-56
2023/07/10 07:17:21;;;;;;;9.33;7.97;;;;;;;;;;5015312;28;20452;-59
2023/07/10 07:19:48;;;;;;;8.60;6.73;;;;;;;;;;5015327;28;20484;-57
2023/07/10 07:22:15;;;;;;;8.00;6.90;;;;;;;;;;5042658;28;20450;-58
2023/07/10 07:24:43;;;;;;;7.97;7.07;;;;;;;;;;5032562;28;20951;-55
2023/07/10 07:27:10;;;;;;;7.13;6.63;;;;;;;;;;5016582;28;20536;-57
2023/07/10 07:29:37;;;;;;;7.93;7.07;;;;;;;;;;5014574;28;20453;-58
2023/07/10 07:32:04;;;;;;;8.30;7.60;;;;;;;;;;5014761;28;20547;-58
2023/07/10 07:34:31;;;;;;;8.73;7.93;;;;;;;;;;5014824;28;20822;-58
2023/07/10 07:36:58;;;;;;;7.90;7.30;;;;;;;;;;5014900;28;20537;-57
2023/07/10 07:39:30;;;;;;;9.33;7.77;;;;;;;;;;5014760;28;20538;-58
2023/07/10 07:41:59;;;;;;;9.10;8.20;;;;;;;;;;5015025;28;20451;-57
2023/07/10 07:44:26;;;;;;;9.40;8.00;;;;;;;;;;5014839;28;20891;-58
2023/07/10 07:46:53;;;;;;;8.20;7.47;;;;;;;;;;5014709;28;20492;-57
2023/07/10 07:49:23;;;;;;;8.50;7.80;;;;;;;;;;5014783;28;20454;-56
2023/07/10 07:51:50;;;;;;;8.43;7.63;;;;;;;;;;5015129;28;20446;-56
2023/07/10 07:54:17;;;;;;;7.20;6.60;;;;;;;;;;5014711;28;20450;-57
2023/07/10 07:56:44;;;;;;;8.10;7.30;;;;;;;;;;5014576;28;20557;-57
2023/07/10 07:59:13;;;;;;;7.77;7.07;;;;;;;;;;5014746;28;20451;-57
2023/07/10 08:01:40;;;;;;;7.70;6.80;;;;;;;;;;5014490;28;20545;-58
2023/07/10 08:04:07;;;;;;;10.90;8.50;;;;;;;;;;5014166;28;20446;-57
2023/07/10 08:06:35;;;;;;;8.07;7.37;;;;;;;;;;5014064;28;20970;-57
2023/07/10 08:09:02;;;;;;;8.23;7.53;;;;;;;;;;5014366;28;21017;-58
2023/07/10 08:11:29;;;;;;;8.30;7.60;;;;;;;;;;5014565;28;20455;-56
2023/07/10 08:13:56;;;;;;;7.93;6.93;;;;;;;;;;5014267;28;20942;-57
2023/07/10 08:16:24;;;;;;;7.90;7.20;;;;;;;;;;5014157;28;20890;-58
2023/07/10 08:18:51;;;;;;;8.10;7.50;;;;;;;;;;5014023;28;20457;-56
2023/07/10 08:21:19;;;;;;;7.43;6.63;;;;;;;;;;5014323;28;20766;-58
2023/07/10 08:23:45;;;;;;;11.43;7.47;;;;;;;;;;5014174;28;20478;-58
2023/07/10 08:26:12;;;;;;;7.30;6.60;;;;;;;;;;5014145;28;20874;-58
2023/07/10 08:28:40;;;;;;;7.13;6.53;;;;;;;;;;5014147;28;20486;-57
2023/07/10 08:31:07;;;;;;;7.57;6.97;;;;;;;;;;5013905;28;20485;-58
2023/07/10 08:33:36;;;;;;;7.80;7.10;;;;;;;;;;5013885;28;20450;-57
2023/07/10 08:36:03;;;;;;;8.13;7.20;;;;;;;;;;5014015;28;20875;-58
2023/07/10 08:38:31;;;;;;;8.73;7.00;;;;;;;;;;5013766;28;20457;-57
2023/07/10 08:41:01;;;;;;;7.57;6.97;;;;;;;;;;5013825;28;20550;-58
2023/07/10 08:43:30;;;;;;;7.63;6.43;;;;;;;;;;5014120;28;20477;-57
2023/07/10 08:46:02;;;;;;;10.87;7.07;;;;;;;;;;5013609;28;20457;-58
2023/07/10 08:48:33;;;;;;;7.03;6.40;;;;;;;;;;5013769;28;20838;-58
2023/07/10 08:51:08;;;;;;;7.53;6.83;;;;;;;;;;5013528;28;20873;-61
2023/07/10 08:53:38;;;;;;;7.90;7.30;;;;;;;;;;5013490;28;20866;-57
2023/07/10 08:56:06;;;;;;;7.20;6.73;;;;;;;;;;5013280;28;20542;-57
2023/07/10 08:58:36;;;;;;;10.03;7.43;;;;;;;;;;5013310;28;20889;-57
2023/07/10 09:01:03;;;;;;;8.13;7.53;;;;;;;;;;5013624;28;20450;-57
2023/07/10 09:03:37;;;;;;;7.80;7.20;;;;;;;;;;5013500;28;20446;-56
2023/07/10 09:06:05;;;;;;;8.43;7.80;;;;;;;;;;5013322;28;20965;-56
2023/07/10 09:08:33;;;;;;;6.90;6.27;;;;;;;;;;5013147;28;20479;-57
2023/07/10 09:11:02;;;;;;;6.90;6.50;;;;;;;;;;5013089;28;20542;-56
2023/07/10 09:13:33;;;;;;;6.93;6.40;;;;;;;;;;5013346;28;20450;-57
2023/07/10 09:16:00;;;;;;;7.43;6.80;;;;;;;;;;5013289;28;20455;-56
2023/07/10 09:18:34;;;;;;;7.77;7.07;;;;;;;;;;5013166;28;20497;-58
2023/07/10 09:21:16;;;;;;;6.43;5.83;;;;;;;;;;5013029;28;20458;-57
2023/07/10 09:23:44;;;;;;;7.50;6.80;;;;;;;;;;5013036;28;20454;-57
2023/07/10 09:26:12;;;;;;;8.03;7.13;;;;;;;;;;5013110;28;20455;-57
2023/07/10 09:28:39;;;;;;;6.77;6.27;;;;;;;;;;5013112;28;20493;-56
2023/07/10 09:31:11;;;;;;;6.93;6.23;;;;;;;;;;5013056;28;20482;-57
2023/07/10 09:33:39;;;;;;;6.93;6.23;;;;;;;;;;5013141;28;20485;-57
2023/07/10 09:36:12;;;;;;;7.30;6.63;;;;;;;;;;5012810;28;20451;-57
2023/07/10 09:38:43;;;;;;;6.57;5.97;;;;;;;;;;5012930;28;20958;-57
2023/07/10 09:41:14;;;;;;;7.13;6.43;;;;;;;;;;5013032;28;20472;-54
2023/07/10 09:43:48;;;;;;;6.20;5.70;;;;;;;;;;5012914;28;20938;-58
2023/07/10 09:46:15;;;;;;;6.90;6.20;;;;;;;;;;5013362;28;20875;-58
2023/07/10 09:48:44;;;;;;;7.67;7.00;;;;;;;;;;5012843;28;20570;-58
2023/07/10 09:51:12;;;;;;;7.00;6.50;;;;;;;;;;5015918;28;20546;-58
2023/07/10 09:53:45;;;;;;;7.83;6.10;;;;;;;;;;5016910;28;20454;-58
2023/07/10 09:56:20;;;;;;;6.43;6.03;;;;;;;;;;5016709;28;20482;-58
2023/07/10 09:58:47;;;;;;;6.83;6.37;;;;;;;;;;5016644;28;20454;-58
2023/07/10 10:01:14;;;;;;;6.60;6.10;;;;;;;;;;5016876;28;20814;-57
2023/07/10 10:03:42;;;;;;;7.27;6.67;;;;;;;;;;5016814;28;20813;-57
2023/07/10 10:06:18;;;;;;;7.30;6.70;;;;;;;;;;5016708;28;20934;-58
2023/07/10 10:08:46;;;;;;;7.83;7.27;;;;;;;;;;5016551;28;20849;-57
2023/07/10 10:11:15;;;;;;;7.93;7.33;;;;;;;;;;5016562;28;20450;-59
2023/07/10 10:13:43;;;;;;;6.90;6.50;;;;;;;;;;5016441;28;20450;-58
2023/07/10 10:16:14;;;;;;;7.13;6.60;;;;;;;;;;5016604;28;20478;-58
2023/07/10 10:18:45;;;;;;;6.80;6.30;;;;;;;;;;5016325;28;20455;-57
2023/07/10 10:21:13;;;;;;;7.93;7.43;;;;;;;;;;5016414;28;20541;-57
2023/07/10 10:23:41;;;;;;;7.00;6.50;;;;;;;;;;5016487;28;20457;-57
2023/07/10 10:26:19;;;;;;;6.70;6.20;;;;;;;;;;5016197;28;20616;-58
2023/07/10 10:28:49;;;;;;;8.03;7.43;;;;;;;;;;5016254;28;20486;-58
2023/07/10 10:31:19;;;;;;;7.33;6.40;;;;;;;;;;5016076;28;20458;-58
2023/07/10 10:33:55;;;;;;;6.73;6.23;;;;;;;;;;5016053;28;20450;-58
2023/07/10 10:36:26;;;;;;;7.30;6.00;;;;;;;;;;4998766;28;20550;-59
2023/07/10 10:38:56;;;;;;;6.73;6.23;;;;;;;;;;5016234;28;20863;-58
2023/07/10 10:41:37;;;;;;;6.27;5.87;;;;;;;;;;5016145;28;20545;-58
2023/07/10 10:44:07;;;;;;;6.20;5.80;;;;;;;;;;5015880;28;20449;-60
2023/07/10 10:46:39;;;;;;;7.33;6.80;;;;;;;;;;5015959;28;20462;-57
2023/07/10 10:49:18;;;;;;;7.80;7.07;;;;;;;;;;5015638;28;21033;-59
2023/07/10 10:51:48;;;;;;;7.67;7.07;;;;;;;;;;5015990;28;20537;-59
2023/07/10 10:54:21;;;;;;;7.00;6.33;;;;;;;;;;5015742;28;20457;-59
2023/07/10 10:56:53;;;;;;;7.03;6.57;;;;;;;;;;5015608;28;20561;-59
2023/07/10 10:59:27;;;;;;;7.20;6.63;;;;;;;;;;5015866;28;20459;-59
2023/07/10 11:01:59;;;;;;;6.10;5.60;;;;;;;;;;5015662;28;20454;-57
2023/07/10 11:04:31;;;;;;;6.70;6.20;;;;;;;;;;5015713;28;20450;-58
2023/07/10 11:07:00;;;;;;;7.20;6.70;;;;;;;;;;5015975;28;20447;-59
2023/07/10 11:09:30;;;;;;;7.30;5.60;;;;;;;;;;5015349;28;20492;-58
2023/07/10 11:12:00;;;;;;;7.00;6.50;;;;;;;;;;5015383;28;20543;-58
2023/07/10 11:14:27;;;;;;;9.60;7.00;;;;;;;;;;5015493;28;20451;-58
2023/07/10 11:16:55;;;;;;;9.20;6.57;;;;;;;;;;5015412;28;20455;-59
2023/07/10 11:19:24;;;;;;;7.00;6.40;;;;;;;;;;5015288;28;20860;-59
2023/07/10 11:21:52;;;;;;;6.30;5.73;;;;;;;;;;5015503;28;20450;-59
2023/07/10 11:24:31;;;;;;;5.70;5.30;;;;;;;;;;5015195;28;20459;-58
2023/07/10 11:27:01;;;;;;;7.40;6.80;;;;;;;;;;5015399;28;20482;-58
2023/07/10 11:29:30;;;;;;;7.10;6.60;;;;;;;;;;5015074;28;20494;-60
2023/07/10 11:31:57;;;;;;;6.67;6.10;;;;;;;;;;5015116;28;20454;-58
2023/07/10 11:34:38;;;;;;;7.60;6.63;;;;;;;;;;5014915;28;21321;-59
2023/07/10 11:37:05;;;;;;;6.90;6.40;;;;;;;;;;5015146;28;20461;-59
2023/07/10 11:39:33;;;;;;;7.47;6.80;;;;;;;;;;5014986;28;20545;-58
2023/07/10 11:42:07;;;;;;;7.00;6.50;;;;;;;;;;5014947;28;20501;-58
2023/07/10 11:44:40;;;;;;;6.90;6.40;;;;;;;;;;5014839;28;20876;-59
2023/07/10 11:47:22;;;;;;;7.60;6.93;;;;;;;;;;5014691;28;20461;-59
2023/07/10 11:50:03;;;;;;;7.10;6.50;;;;;;;;;;5014588;28;21088;-59
2023/07/10 11:52:33;;;;;;;7.37;6.73;;;;;;;;;;5014846;28;20488;-60
2023/07/10 11:55:13;;;;;;;7.17;6.57;;;;;;;;;;5014641;28;20460;-59
2023/07/10 11:57:41;;;;;;;7.60;7.00;;;;;;;;;;5014363;28;20521;-59
2023/07/10 12:00:22;;;;;;;7.00;6.50;;;;;;;;;;5014586;28;20451;-59
2023/07/10 12:02:51;;;;;;;7.20;6.60;;;;;;;;;;5014492;28;20975;-58
2023/07/10 12:05:19;;;;;;;8.73;6.57;;;;;;;;;;5014443;28;20479;-59
2023/07/10 12:07:57;;;;;;;7.83;6.80;;;;;;;;;;5014303;28;20860;-58
2023/07/10 12:10:25;;;;;;;7.70;6.97;;;;;;;;;;5014379;28;20455;-59
2023/07/10 12:12:53;;;;;;;8.70;6.40;;;;;;;;;;5013585;28;20565;-60
2023/07/10 12:15:21;;;;;;;7.67;6.97;;;;;;;;;;5014267;28;20844;-59
2023/07/10 12:17:48;;;;;;;7.30;6.80;;;;;;;;;;5014184;28;20447;-59
2023/07/10 12:20:21;;;;;;;7.17;6.63;;;;;;;;;;5013969;28;21022;-58
2023/07/10 12:22:48;;;;;;;8.80;8.00;;;;;;;;;;5014051;28;20546;-61
2023/07/10 12:25:16;;;;;;;9.63;7.60;;;;;;;;;;5013937;28;20533;-61
2023/07/10 12:27:43;;;;;;;8.67;7.90;;;;;;;;;;5013114;28;20455;-61
2023/07/10 12:30:17;;;;;;;8.40;7.70;;;;;;;;;;5013729;28;20999;-60
2023/07/10 12:32:44;;;;;;;7.93;7.30;;;;;;;;;;5013980;28;20454;-60
2023/07/10 12:35:15;;;;;;;7.30;6.80;;;;;;;;;;5013845;28;20541;-60
2023/07/10 12:37:43;;;;;;;8.37;7.10;;;;;;;;;;5014031;28;21012;-60
2023/07/10 12:40:13;;;;;;;6.93;6.43;;;;;;;;;;5013936;28;20482;-61
2023/07/10 12:42:43;;;;;;;6.10;5.60;;;;;;;;;;5013793;28;20462;-61
2023/07/10 12:45:16;;;;;;;7.23;6.53;;;;;;;;;;5013735;28;20541;-61
2023/07/10 12:47:46;;;;;;;6.57;6.07;;;;;;;;;;5013488;28;20450;-61
2023/07/10 12:50:13;;;;;;;7.30;6.80;;;;;;;;;;5013603;28;21024;-60
2023/07/10 12:52:40;;;;;;;6.60;6.00;;;;;;;;;;5013800;28;20517;-61
2023/07/10 12:55:13;;;;;;;8.83;6.70;;;;;;;;;;5013585;28;20450;-60
2023/07/10 12:57:40;;;;;;;6.53;5.97;;;;;;;;;;5013649;28;20514;-60
2023/07/10 13:00:08;;;;;;;7.40;6.90;;;;;;;;;;5013457;28;20903;-61
2023/07/10 13:02:39;;;;;;;6.30;5.80;;;;;;;;;;5013467;28;20478;-60
2023/07/10 13:05:23;;;;;;;6.57;5.97;;;;;;;;;;5013243;28;20462;-61
2023/07/10 13:07:53;;;;;;;7.53;6.50;;;;;;;;;;5013321;28;20493;-60
2023/07/10 13:10:24;;;;;;;7.20;6.70;;;;;;;;;;5013269;28;21012;-60
2023/07/10 13:12:52;;;;;;;7.53;6.93;;;;;;;;;;5013518;28;20899;-61
2023/07/10 13:15:20;;;;;;;7.30;6.73;;;;;;;;;;5013686;28;20455;-61
2023/07/10 13:17:49;;;;;;;7.90;7.10;;;;;;;;;;5013257;28;21021;-62
2023/07/10 13:20:21;;;;;;;7.93;7.23;;;;;;;;;;5013107;28;21028;-61
2023/07/10 13:22:48;;;;;;;7.40;6.80;;;;;;;;;;5013702;28;20474;-62
2023/07/10 13:25:14;;;;;;;7.60;6.97;;;;;;;;;;5012431;28;20450;-62
2023/07/10 13:27:41;;;;;;;7.77;7.17;;;;;;;;;;5013271;28;20947;-61
2023/07/10 13:30:15;;;;;;;7.43;6.83;;;;;;;;;;5013127;28;20573;-59
2023/07/10 13:32:44;;;;;;;7.97;7.30;;;;;;;;;;5013152;28;20451;-60
2023/07/10 13:35:11;;;;;;;6.57;6.17;;;;;;;;;;5013183;28;20457;-59
2023/07/10 13:37:39;;;;;;;6.87;6.27;;;;;;;;;;5012945;28;20450;-59
2023/07/10 13:40:07;;;;;;;11.77;6.53;;;;;;;;;;5013168;28;20466;-59
2023/07/10 13:42:35;;;;;;;6.77;6.20;;;;;;;;;;5012822;28;21020;-60
2023/07/10 13:45:02;;;;;;;7.20;6.57;;;;;;;;;;5012976;28;20765;-59
2023/07/10 13:47:29;;;;;;;7.77;6.97;;;;;;;;;;5013147;28;20450;-59
2023/07/10 13:49:56;;;;;;;7.93;7.33;;;;;;;;;;5012766;28;20482;-60
2023/07/10 13:52:24;;;;;;;7.47;6.97;;;;;;;;;;5012756;28;20831;-59
2023/07/10 13:54:53;;;;;;;7.97;7.20;;;;;;;;;;5012639;28;20493;-60
2023/07/10 13:57:22;;;;;;;10.10;6.77;;;;;;;;;;5012534;28;20820;-60
2023/07/10 13:59:49;;;;;;;7.43;6.83;;;;;;;;;;5012799;28;20456;-60
2023/07/10 14:02:24;;;;;;;8.33;7.60;;;;;;;;;;5012846;28;20889;-60
2023/07/10 14:04:51;;;;;;;8.83;8.10;;;;;;;;;;5012935;28;20450;-60
2023/07/10 14:07:20;;;;;;;8.87;8.00;;;;;;;;;;5012842;28;20477;-60
2023/07/10 14:09:47;;;;;;;7.30;6.80;;;;;;;;;;5012697;28;20494;-61
2023/07/10 14:12:16;;;;;;;8.30;7.60;;;;;;;;;;5012485;28;20451;-60
2023/07/10 14:14:43;;;;;;;8.67;7.97;;;;;;;;;;5012657;28;20454;-60
2023/07/10 14:17:14;;;;;;;8.33;7.73;;;;;;;;;;5012533;28;20442;-60
2023/07/10 14:19:41;;;;;;;9.90;8.90;;;;;;;;;;5013031;28;20457;-60
2023/07/10 14:22:11;;;;;;;10.57;8.57;;;;;;;;;;5012666;28;20537;-61
2023/07/10 14:24:38;;;;;;;7.93;7.33;;;;;;;;;;5012723;28;21081;-60
2023/07/10 14:27:13;;;;;;;9.40;8.47;;;;;;;;;;5012602;28;20660;-60
2023/07/10 14:29:42;;;;;;;7.70;7.10;;;;;;;;;;4995104;28;20490;-61
2023/07/10 14:32:11;;;;;;;7.30;6.60;;;;;;;;;;5012787;28;20454;-60
2023/07/10 14:34:38;;;;;;;8.90;8.20;;;;;;;;;;5012599;28;20803;-61
2023/07/10 14:37:10;;;;;;;7.97;7.37;;;;;;;;;;5014762;28;20454;-60
2023/07/10 14:39:37;;;;;;;8.07;7.37;;;;;;;;;;5016054;28;20450;-60
2023/07/10 14:42:09;;;;;;;7.63;7.03;;;;;;;;;;5016042;28;20461;-62
2023/07/10 14:44:36;;;;;;;8.60;7.80;;;;;;;;;;5016139;28;20533;-60
2023/07/10 14:47:05;;;;;;;7.43;6.80;;;;;;;;;;5016057;28;20453;-60
2023/07/10 14:49:31;;;;;;;7.27;6.77;;;;;;;;;;5016001;28;20478;-60
2023/07/10 14:51:58;;;;;;;6.77;6.17;;;;;;;;;;5015969;28;20450;-60